Hlavní strana
METAR-TAF:

METAR-TAF

Letiště :

Pisa, Itálie

zeměpisná šířka: 43-41N, zeměpisná délka: 010-23E, výška: 2 m

Aktuální stav počasí

Zpráva byla vytvořena před 45 minutami, v 10:15 UTC
Západní vítr 2 kt
Teplota 31°C
Vlhkost vzduchu 40%
Tlak 1014 hPa
Viditelnost 10 km a více
Žádná oblačnost pod 1500 m, nevyskytují se cumulonimby.

METAR: LIRP 201015Z 28002KT CAVOK 31/16 Q1014 NOSIG

Čas: 13:00 (11:00 UTC)

Předpověď počasí

Zpráva byla vytvořena před 6 hodinami a 0 minutami, v 05:00 UTC
Předpověď platná od 20 v 06 UTC do 21 v 06 UTC
vítr z různých směrů 4 kt
Viditelnost 10 km a více
Žádná oblačnost pod 1500 m, nevyskytují se cumulonimby.
Změna
od 20 v 10 UTC do 20 v 12 UTC
Západoseverozápadní vítr 10 kt
Viditelnost 10 km a více
Polojasno ve výšce 5000 ft
Změna
od 20 v 16 UTC do 20 v 18 UTC
vítr z různých směrů 3 kt
Viditelnost 10 km a více
Žádná oblačnost pod 1500 m, nevyskytují se cumulonimby.

TAF: LIRP 200500Z 2006/2106 VRB04KT CAVOK BECMG 2010/2012 30010KT 9999 SCT050 BECMG 2016/2018 VRB03KT CAVOK

Stav a předpovědi počasí z více než 4 000 letišť (zprávy METAR a TAF).

Červené a žluté tečky na mapě představují dostupné meteorologické stanice.

Když kurzor umístíte na tečku, zobrazí se název stanice.

Pak kliknutím zobrazíte stav a předpověď počasí.

Chcete-li změnit mapu, kliknutím na zelené tlačítko se znaménkem +mapu přiblížíte, kliknutím na zelené tlačítko se znaménkem – mapu oddálíte a kliknutím na zelené šipky přejdete na sousední mapy.


METAR-TAF: